DW0841 Weather Reports


Display with metric or nautical units.
time (UTC)temp
F
wind
direction
speed
MPH
gust
MPH
rain 1hr
in
rain 24hr
in
rain mn
in
humidity
%
barometer
mb
20200229131820 54 0.0 0.0 0.00 0.00 0.00 39 1008.2
20200229130820 54 0.0 1.0 0.00 0.00 0.00 39 1008.3
20200229125819 54 0.0 0.0 0.00 0.00 0.00 39 1008.3
20200229124819 54 135 2.0 3.0 0.00 0.00 0.00 39 1008.3
20200229123819 54 0.0 0.0 0.00 0.00 0.00 39 1008.4
20200229122819 55 0.0 0.0 0.00 0.00 0.00 39 1008.4
20200229121819 55 0.0 0.0 0.00 0.00 0.00 39 1008.5
20200229120819 55 0.0 0.0 0.00 0.00 0.00 39 1008.5
20200229115819 56 0.0 0.0 0.00 0.00 0.00 40 1008.6
20200229114816 55 0.0 1.0 0.00 0.00 0.00 40 1008.6
20200229113819 56 0.0 0.0 0.00 0.00 0.00 41 1008.7
20200229112819 56 0.0 0.0 0.00 0.00 0.00 41 1008.8
20200229111819 57 0.0 0.0 0.00 0.00 0.00 41 1008.9
20200229110819 57 0.0 0.0 0.00 0.00 0.00 40 1008.9
20200229105819 58 0.0 0.0 0.00 0.00 0.00 41 1008.8
20200229104819 58 0.0 0.0 0.00 0.00 0.00 41 1008.7
20200229103816 59 0.0 0.0 0.00 0.00 0.00 41 1008.7
20200229102819 59 0.0 0.0 0.00 0.00 0.00 41 1008.6
20200229101819 60 0.0 0.0 0.00 0.00 0.00 42 1008.5
20200229100819 60 0.0 0.0 0.00 0.00 0.00 42 1008.5
20200229095819 61 0.0 0.0 0.00 0.00 0.00 42 1008.3
20200229094819 61 0.0 0.0 0.00 0.00 0.00 42 1008.2
20200229093819 61 0.0 1.0 0.00 0.00 0.00 43 1007.9
20200229092819 62 0.0 0.0 0.00 0.00 0.00 44 1007.9
20200229091819 62 0.0 0.0 0.00 0.00 0.00 45 1007.7
20200229090820 63 0.0 0.0 0.00 0.00 0.00 46 1007.6
20200229085819 63 0.0 0.0 0.00 0.00 0.00 46 1007.5
20200229084819 64 0.0 1.0 0.00 0.00 0.00 47 1007.4
20200229083819 64 0.0 0.0 0.00 0.00 0.00 48 1007.2
20200229082819 65 135 2.0 7.0 0.00 0.00 0.00 51 1006.9
20200229081819 66 113 2.0 8.0 0.00 0.00 0.00 52 1006.7
20200229080819 68 90 1.0 4.0 0.00 0.00 0.00 54 1006.5
20200229075819 70 90 1.0 3.0 0.00 0.00 0.00 55 1006.4
20200229074819 73 0.0 1.0 0.00 0.00 0.00 53 1006.5
20200229073819 75 0.0 1.0 0.00 0.00 0.00 44 1006.0
20200229072819 77 0.0 1.0 0.00 0.00 0.00 40 1005.8
20200229071819 78 203 1.0 5.0 0.00 0.00 0.00 32 1005.7
20200229070819 78 203 1.0 4.0 0.00 0.00 0.00 31 1005.7
20200229065819 78 0.0 1.0 0.00 0.00 0.00 31 1005.6
20200229064819 78 0.0 2.0 0.00 0.00 0.00 31 1005.5
20200229063819 78 0.0 1.0 0.00 0.00 0.00 36 1005.4
20200229062819 78 0.0 0.0 0.00 0.00 0.00 32 1005.4
20200229061819 79 0.0 0.0 0.00 0.00 0.00 38 1005.3
20200229060819 80 180 3.0 8.0 0.00 0.00 0.00 31 1005.3
20200229055821 80 203 2.0 3.0 0.00 0.00 0.00 31 1005.4
20200229054822 80 180 1.0 3.0 0.00 0.00 0.00 32 1005.3
20200229053821 81 180 3.0 6.0 0.00 0.00 0.00 31 1005.3
20200229052821 81 203 3.0 4.0 0.00 0.00 0.00 31 1005.3
20200229051822 81 180 1.0 11.0 0.00 0.00 0.00 31 1005.2
20200229050821 81 180 1.0 6.0 0.00 0.00 0.00 31 1005.2
20200229045821 80 180 2.0 7.0 0.00 0.00 0.00 31 1005.3
20200229044821 80 180 1.0 3.0 0.00 0.00 0.00 37 1005.2
20200229043818 79 158 2.0 5.0 0.00 0.00 0.00 36 1005.3
20200229042821 80 180 1.0 5.0 0.00 0.00 0.00 36 1005.4
20200229041821 80 0.0 0.0 0.00 0.00 0.00 35 1005.3
20200229040821 80 180 1.0 5.0 0.00 0.00 0.00 35 1005.3
20200229035821 80 0.0 1.0 0.00 0.00 0.00 37 1005.4
20200229034821 80 0.0 2.0 0.00 0.00 0.00 34 1005.3
20200229033822 80 113 3.0 8.0 0.00 0.00 0.00 35 1005.6
20200229032821 80 90 1.0 3.0 0.00 0.00 0.00 35 1005.6
20200229031821 79 0.0 2.0 0.00 0.00 0.00 36 1005.6
20200229030821 78 45 1.0 3.0 0.00 0.00 0.00 36 1005.6
20200229025821 78 45 1.0 5.0 0.00 0.00 0.00 37 1005.8
20200229024822 77 90 1.0 3.0 0.00 0.00 0.00 38 1005.8
20200229023821 79 90 2.0 3.0 0.00 0.00 0.00 37 1005.8
20200229022821 79 90 3.0 6.0 0.00 0.00 0.00 36 1005.8
20200229021821 80 90 1.0 4.0 0.00 0.00 0.00 36 1005.7
20200229020821 79 0.0 2.0 0.00 0.00 0.00 34 1005.9
20200229015818 78 90 1.0 3.0 0.00 0.00 0.00 37 1005.8
20200229014822 77 68 2.0 10.0 0.00 0.00 0.00 37 1005.8
20200229013821 77 135 1.0 2.0 0.00 0.00 0.00 39 1005.8
20200229012821 75 158 1.0 2.0 0.00 0.01 0.00 41 1005.8
20200229011821 74 0.0 1.0 0.00 0.01 0.00 42 1005.9
20200229010821 74 158 1.0 2.0 0.00 0.01 0.00 41 1005.8
20200229005821 74 158 1.0 2.0 0.00 0.01 0.00 42 1005.8
20200229004821 74 0.0 0.0 0.00 0.01 0.00 42 1006.0
20200229003821 74 0.0 0.0 0.00 0.01 0.00 42 1006.0
20200229002821 74 0.0 1.0 0.00 0.01 0.00 42 1005.8
20200229001818 74 0.0 2.0 0.00 0.01 0.00 41 1005.9
20200229000821 74 203 3.0 7.0 0.00 0.01 0.00 40 1005.8
20200228235821 74 90 2.0 6.0 0.00 0.01 0.00 44 1005.8
20200228234821 72 0.0 2.0 0.00 0.01 0.00 44 1005.8
20200228233821 71 113 2.0 7.0 0.00 0.01 0.00 44 1005.6
20200228232821 71 90 1.0 4.0 0.00 0.01 0.00 46 1005.7
20200228231821 70 90 2.0 5.0 0.00 0.01 0.00 48 1005.7
20200228230821 70 0.0 1.0 0.00 0.01 0.00 47 1005.7
20200228225821 69 90 1.0 4.0 0.00 0.01 0.00 49 1005.5
20200228224821 69 113 1.0 3.0 0.00 0.01 0.00 49 1005.6
20200228223821 69 0.0 1.0 0.00 0.01 0.00 49 1005.5
20200228222821 68 0.0 1.0 0.00 0.01 0.00 49 1005.5
20200228221821 67 90 1.0 4.0 0.00 0.01 0.00 52 1005.4
20200228220821 66 0.0 1.0 0.00 0.01 0.00 53 1005.5
20200228215821 65 0.0 1.0 0.00 0.01 0.00 55 1005.5
20200228214821 64 0.0 2.0 0.00 0.01 0.00 56 1005.4
20200228213821 63 0.0 1.0 0.00 0.01 0.00 58 1005.4
20200228212821 61 0.0 2.0 0.00 0.01 0.00 59 1005.5
20200228211821 59 0.0 1.0 0.00 0.01 0.00 58 1005.4
20200228210821 57 0.0 0.0 0.00 0.01 0.00 56 1005.3
20200228205821 56 0.0 0.0 0.00 0.01 0.00 55 1005.1
20200228204821 55 0.0 0.0 0.00 0.01 0.00 55 1005.0
20200228203821 54 0.0 1.0 0.00 0.01 0.00 55 1005.1
20200228202821 54 0.0 0.0 0.00 0.01 0.00 55 1005.0
20200228201821 54 0.0 0.0 0.00 0.01 0.00 55 1005.1
20200228200821 54 0.0 0.0 0.00 0.01 0.00 54 1005.0
20200228195821 53 0.0 1.0 0.00 0.01 0.00 53 1005.0
20200228194821 53 0.0 0.0 0.00 0.01 0.00 54 1004.9
20200228193821 53 0.0 2.0 0.00 0.01 0.00 53 1005.0
20200228192821 53 0.0 0.0 0.00 0.01 0.00 53 1004.9
20200228191820 52 0.0 1.0 0.00 0.01 0.00 53 1004.8
20200228190821 52 0.0 1.0 0.00 0.01 0.00 53 1005.1
20200228185820 53 0.0 2.0 0.00 0.01 0.00 54 1004.9
20200228184821 53 270 3.0 4.0 0.00 0.01 0.00 53 1004.8
20200228183821 53 0.0 0.0 0.00 0.01 0.00 54 1004.9
20200228182821 52 0.0 0.0 0.00 0.01 0.00 54 1005.0
20200228181820 53 0.0 0.0 0.00 0.01 0.00 55 1005.2
20200228180821 54 0.0 1.0 0.00 0.01 0.00 56 1005.3
20200228175820 54 0.0 1.0 0.00 0.01 0.00 55 1005.1
20200228174820 54 270 1.0 3.0 0.00 0.01 0.00 56 1004.9
20200228173817 54 270 3.0 4.0 0.00 0.01 0.00 54 1004.8
20200228172820 54 0.0 0.0 0.00 0.01 0.00 55 1004.7
20200228171821 54 0.0 0.0 0.00 0.01 0.00 56 1004.9
20200228170821 55 0.0 0.0 0.00 0.01 0.00 56 1004.8
20200228165817 55 0.0 0.0 0.00 0.01 0.00 55 1004.9
20200228164821 55 0.0 0.0 0.00 0.01 0.00 55 1005.0
20200228163821 54 0.0 0.0 0.00 0.01 0.00 54 1005.1
20200228162820 54 0.0 0.0 0.00 0.01 0.00 53 1005.0
20200228161820 53 0.0 1.0 0.00 0.01 0.00 54 1005.2
20200228160820 54 0.0 0.0 0.00 0.01 0.00 54 1005.1
20200228155821 54 0.0 0.0 0.00 0.01 0.00 54 1005.1
20200228154820 54 0.0 0.0 0.00 0.02 0.00 54 1005.3
20200228153820 54 0.0 0.0 0.00 0.02 0.00 55 1005.4
20200228152821 55 0.0 0.0 0.00 0.02 0.00 55 1005.6
20200228151820 55 0.0 0.0 0.00 0.02 0.00 53 1005.8
20200228150820 54 0.0 0.0 0.00 0.02 0.00 53 1005.8
20200228145820 54 0.0 1.0 0.00 0.02 0.00 52 1005.9
20200228144820 53 0.0 0.0 0.00 0.03 0.00 51 1006.1
20200228143820 53 0.0 0.0 0.00 0.04 0.00 51 1006.1
20200228142820 52 0.0 0.0 0.00 0.04 0.00 51 1006.3
20200228141820 52 0.0 0.0 0.00 0.04 0.00 51 1006.4
20200228140821 52 0.0 0.0 0.00 0.05 0.00 51 1006.5
20200228135821 51 0.0 0.0 0.00 0.05 0.00 51 1006.6
20200228134820 50 0.0 2.0 0.00 0.06 0.00 54 1006.7
20200228133820 51 0.0 0.0 0.00 0.06 0.00 55 1006.7
20200228132825 51 248 2.0 3.0 0.00 0.06 0.00 55 1006.9